Time;durP1;ratioP1;P1;durP2;ratioP2;P2;SDS_P1;SDS_P2;PMS_P1;PMS_P2;Temp;Humidity;BMP_temperature;BMP_pressure;BME280_temperature;BME280_humidity;BME280_pressure;Samples;Min_cycle;Max_cycle;Signal;HPM_P1;HPM_P2
2024/02/22 00:00:35;;;;;;;1.40;1.10;;;;;;;11.88;56.65;97143.44;5024903;28;20212;-82
2024/02/22 00:03:02;;;;;;;1.70;1.40;;;;;;;11.79;57.99;97142.47;5024667;28;20233;-82
2024/02/22 00:05:30;;;;;;;1.73;1.30;;;;;;;11.73;58.37;97142.19;5024239;28;20246;-82
2024/02/22 00:07:57;;;;;;;2.97;1.23;;;;;;;11.71;59.29;97149.41;5023659;28;20210;-82
2024/02/22 00:10:28;;;;;;;1.53;1.37;;;;;;;11.64;59.48;97143.84;5024370;28;20233;-82
2024/02/22 00:12:55;;;;;;;1.57;1.33;;;;;;;11.66;60.15;97139.25;5023901;28;20225;-81
2024/02/22 00:15:23;;;;;;;1.73;1.20;;;;;;;11.59;61.38;97163.72;5023728;28;20225;-81
2024/02/22 00:17:49;;;;;;;5.37;1.43;;;;;;;11.61;61.03;97117.63;5006753;28;20268;-81
2024/02/22 00:20:17;;;;;;;2.73;1.40;;;;;;;11.61;61.94;97151.22;5024872;28;20213;-81
2024/02/22 00:22:46;;;;;;;2.40;1.27;;;;;;;11.52;62.89;97159.91;5024089;28;20262;-81
2024/02/22 00:25:13;;;;;;;2.80;1.20;;;;;;;11.46;61.91;97132.22;5024449;28;20652;-81
2024/02/22 00:27:41;;;;;;;2.13;1.33;;;;;;;11.45;62.16;97137.63;5023688;28;20580;-81
2024/02/22 00:30:12;;;;;;;1.23;1.10;;;;;;;11.42;63.36;97140.53;5024217;28;20210;-81
2024/02/22 00:32:38;;;;;;;1.50;1.40;;;;;;;11.32;63.55;97143.16;5005962;28;20233;-81
2024/02/22 00:35:05;;;;;;;6.47;1.53;;;;;;;11.25;64.55;97139.38;5021978;28;20218;-81
2024/02/22 00:37:35;;;;;;;2.13;1.10;;;;;;;11.25;64.02;97127.97;5018388;28;20447;-80
2024/02/22 00:40:03;;;;;;;1.37;1.13;;;;;;;11.20;64.62;97130.19;5022184;28;20282;-81
2024/02/22 00:42:30;;;;;;;1.87;1.10;;;;;;;11.20;64.89;97128.34;5022739;28;20238;-81
2024/02/22 00:44:57;;;;;;;1.53;1.20;;;;;;;11.21;64.54;97113.34;5023146;28;20238;-81
2024/02/22 00:47:23;;;;;;;1.73;1.33;;;;;;;11.16;65.98;97126.13;5023183;28;20297;-81
2024/02/22 00:49:50;;;;;;;1.93;1.20;;;;;;;11.10;65.74;97116.06;5022157;28;20209;-81
2024/02/22 00:52:16;;;;;;;2.77;1.30;;;;;;;11.05;66.13;97112.97;5022797;28;20228;-81
2024/02/22 00:54:44;;;;;;;1.97;1.43;;;;;;;11.13;65.99;97105.25;5023470;28;20559;-81
2024/02/22 00:57:12;;;;;;;1.43;1.10;;;;;;;11.10;65.88;97093.13;5023251;28;20691;-81
2024/02/22 00:59:39;;;;;;;1.37;1.27;;;;;;;11.15;65.89;97082.97;5023316;28;20225;-81
2024/02/22 01:02:05;;;;;;;1.93;1.30;;;;;;;11.12;66.21;97077.13;5023730;28;20234;-81
2024/02/22 01:04:32;;;;;;;2.07;1.60;;;;;;;11.06;66.91;97088.25;5022808;28;20210;-81
2024/02/22 01:06:59;;;;;;;2.23;1.43;;;;;;;11.05;68.04;97081.25;5023944;28;20211;-81
2024/02/22 01:09:29;;;;;;;2.37;1.40;;;;;;;11.03;68.43;97085.84;5022407;28;20216;-81
2024/02/22 01:11:55;;;;;;;1.30;1.10;;;;;;;10.96;69.36;97097.94;5004812;28;20245;-81
2024/02/22 01:14:23;;;;;;;1.67;1.37;;;;;;;10.91;69.25;97081.63;5022633;28;20379;-81
2024/02/22 01:16:50;;;;;;;1.77;1.30;;;;;;;10.91;70.11;97081.63;5021658;28;20211;-81
2024/02/22 01:19:16;;;;;;;1.23;1.13;;;;;;;10.90;70.58;97088.72;5022625;28;20650;-81
2024/02/22 01:21:43;;;;;;;2.40;1.23;;;;;;;10.91;71.14;97093.06;5004710;28;20227;-81
2024/02/22 01:24:10;;;;;;;1.37;1.20;;;;;;;10.90;71.37;97072.03;5022931;28;20224;-81
2024/02/22 01:26:36;;;;;;;1.20;1.00;;;;;;;10.85;72.61;97077.72;5022580;28;20218;-81
2024/02/22 01:29:03;;;;;;;3.53;1.20;;;;;;;10.90;72.59;97061.47;5022879;28;20582;-81
2024/02/22 01:31:31;;;;;;;1.80;1.00;;;;;;;10.89;73.08;97057.16;5022296;28;20242;-81
2024/02/22 01:33:58;;;;;;;2.20;1.47;;;;;;;10.85;74.11;97064.50;5022844;28;20202;-81
2024/02/22 01:36:24;;;;;;;1.40;1.20;;;;;;;10.83;74.14;97045.28;5022324;28;20598;-81
2024/02/22 01:38:51;;;;;;;1.47;1.20;;;;;;;10.79;75.28;97043.06;5022744;28;20228;-81
2024/02/22 01:41:17;;;;;;;2.47;1.30;;;;;;;10.82;75.46;97048.09;5021672;28;20211;-81
2024/02/22 01:43:44;;;;;;;1.60;1.20;;;;;;;10.76;76.05;97057.38;5022601;28;20238;-81
2024/02/22 01:46:10;;;;;;;1.73;1.20;;;;;;;10.78;75.98;97044.88;5022707;28;20205;-81
2024/02/22 01:48:39;;;;;;;1.83;1.10;;;;;;;10.76;76.72;97043.34;5022946;28;20218;-83
2024/02/22 01:51:06;;;;;;;1.80;1.30;;;;;;;10.69;78.02;97050.09;5022983;28;20215;-81
2024/02/22 01:53:34;;;;;;;1.40;1.10;;;;;;;10.76;77.97;97032.75;5022847;28;20211;-81
2024/02/22 01:56:03;;;;;;;1.50;1.10;;;;;;;10.67;79.01;97030.91;5022060;28;20205;-81
2024/02/22 01:58:33;;;;;;;2.10;1.23;;;;;;;10.71;78.92;97024.41;5021779;28;20247;-81
2024/02/22 02:01:00;;;;;;;1.30;1.10;;;;;;;10.64;80.59;97034.66;5021538;28;20210;-81
2024/02/22 02:03:27;;;;;;;1.60;1.10;;;;;;;10.59;81.49;97020.19;5022473;28;20236;-81
2024/02/22 02:05:56;;;;;;;1.63;1.03;;;;;;;10.61;81.30;97007.66;5021814;28;20214;-81
2024/02/22 02:08:22;;;;;;;1.33;1.17;;;;;;;10.65;81.54;97003.78;5021279;28;20215;-81
2024/02/22 02:10:50;;;;;;;2.10;1.00;;;;;;;10.63;82.74;97006.56;5020729;28;20699;-81
2024/02/22 02:13:17;;;;;;;1.93;1.43;;;;;;;10.56;83.79;96994.84;5020534;28;20230;-81
2024/02/22 02:15:43;;;;;;;1.70;1.20;;;;;;;10.54;85.28;97002.09;5020325;28;20211;-81
2024/02/22 02:18:10;;;;;;;2.20;1.33;;;;;;;10.56;84.59;96988.72;5021559;28;20297;-81
2024/02/22 02:20:41;;;;;;;1.43;0.90;;;;;;;10.57;85.14;96993.03;5002894;28;20213;-81
2024/02/22 02:23:28;;;;;;;1.43;1.07;;;;;;;10.52;86.04;96988.16;5021106;28;20613;-81
2024/02/22 02:25:55;;;;;;;1.30;1.00;;;;;;;10.53;86.53;96983.72;5020957;28;20224;-81
2024/02/22 02:28:22;;;;;;;1.27;1.10;;;;;;;10.46;86.53;96974.66;5020621;28;20613;-81
2024/02/22 02:30:48;;;;;;;2.20;1.10;;;;;;;10.52;86.69;96971.50;5021842;28;20220;-81
2024/02/22 02:33:15;;;;;;;1.67;1.03;;;;;;;10.49;86.39;96967.31;5021588;28;20243;-81
2024/02/22 02:35:41;;;;;;;1.67;0.87;;;;;;;10.52;86.75;96967.03;5020890;28;20681;-81
2024/02/22 02:38:10;;;;;;;1.67;1.03;;;;;;;10.50;88.01;96960.19;5021417;28;20213;-81
2024/02/22 02:40:37;;;;;;;1.57;1.10;;;;;;;10.53;87.95;96946.75;5021343;28;20308;-81
2024/02/22 02:43:06;;;;;;;1.87;1.17;;;;;;;10.46;88.18;96946.44;5021242;28;20237;-81
2024/02/22 02:45:33;;;;;;;1.07;0.80;;;;;;;10.45;88.75;96965.06;5021788;28;20251;-82
2024/02/22 02:47:59;;;;;;;1.37;0.90;;;;;;;10.46;89.23;96961.47;5017900;28;20216;-81
2024/02/22 02:50:26;;;;;;;0.70;0.70;;;;;;;10.44;88.84;96958.09;5019404;28;20636;-81
2024/02/22 02:52:53;;;;;;;3.47;1.00;;;;;;;10.45;88.60;96931.56;5021769;28;20241;-81
2024/02/22 02:55:20;;;;;;;1.10;1.00;;;;;;;10.42;89.12;96934.47;5022483;28;20222;-81
2024/02/22 02:57:47;;;;;;;0.93;0.90;;;;;;;10.40;90.33;96941.69;5022035;28;20292;-81
2024/02/22 03:00:15;;;;;;;1.23;0.97;;;;;;;10.33;91.93;96942.38;5021247;28;20231;-81
2024/02/22 03:02:42;;;;;;;0.90;0.77;;;;;;;10.35;91.28;96927.22;5020819;28;20607;-81
2024/02/22 03:05:10;;;;;;;1.27;0.80;;;;;;;10.30;92.49;96934.69;5021547;28;20213;-81
2024/02/22 03:07:37;;;;;;;1.13;0.83;;;;;;;10.27;94.02;96934.97;5021720;28;20236;-81
2024/02/22 03:10:05;;;;;;;1.20;0.90;;;;;;;10.24;94.73;96935.22;5022716;28;20424;-81
2024/02/22 03:12:31;;;;;;;2.23;0.97;;;;;;;10.20;95.75;96923.25;5022604;28;20236;-81
2024/02/22 03:14:59;;;;;;;0.60;0.60;;;;;;;10.25;94.95;96929.81;5022619;28;20219;-81
2024/02/22 03:17:27;;;;;;;0.70;0.60;;;;;;;10.26;96.54;96917.44;5023471;28;20206;-81
2024/02/22 03:19:53;;;;;;;1.47;0.70;;;;;;;10.20;97.65;96917.97;5023856;28;20353;-81
2024/02/22 03:22:20;;;;;;;0.77;0.60;;;;;;;10.11;98.99;96916.13;5026059;28;20241;-81
2024/02/22 03:24:47;;;;;;;1.47;0.70;;;;;;;10.13;99.34;96911.56;5026643;28;20668;-81
2024/02/22 03:27:14;;;;;;;0.83;0.70;;;;;;;10.15;99.65;96893.78;5027515;28;20242;-81
2024/02/22 03:29:42;;;;;;;0.60;0.60;;;;;;;10.10;100.00;96893.34;5027489;28;20216;-81
2024/02/22 03:32:08;;;;;;;1.73;0.77;;;;;;;10.11;100.00;96902.94;5027229;28;20240;-81
2024/02/22 03:34:37;;;;;;;0.60;0.60;;;;;;;10.05;100.00;96890.28;5027687;28;20300;-81
2024/02/22 03:37:03;;;;;;;2.00;0.90;;;;;;;10.04;100.00;96891.25;5027489;28;20319;-81
2024/02/22 03:39:30;;;;;;;0.97;0.80;;;;;;;10.05;100.00;96887.63;5027627;28;20214;-81
2024/02/22 03:41:56;;;;;;;0.50;0.50;;;;;;;10.06;100.00;96878.75;5027455;28;20236;-81
2024/02/22 03:44:23;;;;;;;0.60;0.60;;;;;;;10.09;100.00;96874.03;5024406;28;20600;-81
2024/02/22 03:46:51;;;;;;;0.80;0.80;;;;;;;10.14;100.00;96860.41;5022737;28;20210;-81
2024/02/22 03:49:17;;;;;;;0.80;0.80;;;;;;;10.13;100.00;96864.88;5022538;28;20209;-81
2024/02/22 03:51:45;;;;;;;0.70;0.70;;;;;;;10.14;100.00;96871.81;5022618;28;20238;-81
2024/02/22 03:54:12;;;;;;;0.80;0.70;;;;;;;10.18;100.00;96867.13;5022784;28;20216;-81
2024/02/22 03:56:39;;;;;;;0.87;0.70;;;;;;;10.16;100.00;96876.97;5021802;28;20571;-81
2024/02/22 03:59:06;;;;;;;1.30;0.87;;;;;;;10.07;100.00;96861.94;5021930;28;20213;-81
2024/02/22 04:01:33;;;;;;;0.87;0.70;;;;;;;10.07;100.00;96865.41;5022994;28;20240;-81
2024/02/22 04:04:00;;;;;;;0.77;0.70;;;;;;;10.01;100.00;96865.91;5023569;28;20232;-81
2024/02/22 04:06:26;;;;;;;0.77;0.63;;;;;;;10.02;100.00;96857.03;5023144;28;20620;-81
2024/02/22 04:08:57;;;;;;;0.80;0.70;;;;;;;9.99;100.00;96861.75;5023623;28;20209;-81
2024/02/22 04:11:23;;;;;;;1.23;1.00;;;;;;;9.88;100.00;96848.63;5023242;28;20240;-81
2024/02/22 04:13:50;;;;;;;1.73;0.90;;;;;;;9.87;100.00;96862.78;5023222;28;20216;-81
2024/02/22 04:16:16;;;;;;;1.20;0.80;;;;;;;9.88;100.00;96867.09;5023185;28;20742;-81
2024/02/22 04:18:43;;;;;;;1.20;0.70;;;;;;;9.88;100.00;96875.00;5022193;28;20219;-81
2024/02/22 04:21:10;;;;;;;1.33;0.90;;;;;;;9.89;100.00;96869.63;5022450;28;20208;-81
2024/02/22 04:23:36;;;;;;;0.80;0.70;;;;;;;9.89;100.00;96850.28;5022852;28;20611;-81
2024/02/22 04:26:04;;;;;;;1.10;0.77;;;;;;;9.84;100.00;96857.81;5022446;28;20251;-81
2024/02/22 04:28:31;;;;;;;0.90;0.80;;;;;;;9.88;100.00;96838.06;5022576;28;20208;-81
2024/02/22 04:30:57;;;;;;;0.90;0.70;;;;;;;9.90;100.00;96841.44;5021558;28;20228;-81
2024/02/22 04:33:24;;;;;;;1.10;0.80;;;;;;;9.85;100.00;96841.00;5022184;28;20224;-81
2024/02/22 04:35:50;;;;;;;1.50;0.80;;;;;;;9.83;100.00;96835.84;5022538;28;20210;-81
2024/02/22 04:38:17;;;;;;;1.03;0.83;;;;;;;9.88;100.00;96840.72;5021577;28;20213;-81
2024/02/22 04:40:43;;;;;;;2.67;0.90;;;;;;;9.81;100.00;96848.34;5021616;28;20349;-81
2024/02/22 04:43:13;;;;;;;0.90;0.80;;;;;;;9.80;100.00;96845.81;5023754;28;20233;-81
2024/02/22 04:45:39;;;;;;;0.77;0.60;;;;;;;9.77;100.00;96832.88;5023446;28;20205;-81
2024/02/22 04:48:07;;;;;;;0.67;0.60;;;;;;;9.74;100.00;96841.06;5023055;28;20214;-81
2024/02/22 04:50:33;;;;;;;0.67;0.67;;;;;;;9.79;100.00;96823.06;5023228;28;20218;-81
2024/02/22 04:53:00;;;;;;;2.60;0.80;;;;;;;9.76;100.00;96823.31;5022649;28;20232;-81
2024/02/22 04:55:27;;;;;;;0.80;0.80;;;;;;;9.77;100.00;96815.25;5022287;28;20213;-81
2024/02/22 04:57:54;;;;;;;1.23;0.90;;;;;;;9.74;100.00;96819.97;5022547;28;20220;-81
2024/02/22 05:00:22;;;;;;;0.60;0.60;;;;;;;9.75;100.00;96811.09;5023004;28;20279;-81
2024/02/22 05:02:49;;;;;;;1.47;0.70;;;;;;;9.74;100.00;96819.97;5022792;28;20773;-81
2024/02/22 05:05:16;;;;;;;1.23;0.70;;;;;;;9.71;100.00;96809.66;5023068;28;20296;-81
2024/02/22 05:07:43;;;;;;;0.73;0.73;;;;;;;9.73;100.00;96813.03;5023134;28;20210;-81
2024/02/22 05:10:10;;;;;;;0.70;0.70;;;;;;;9.73;100.00;96807.75;5022969;28;20285;-81
2024/02/22 05:12:37;;;;;;;1.40;0.80;;;;;;;9.70;100.00;96808.84;5022321;28;20232;-81
2024/02/22 05:15:04;;;;;;;1.30;0.90;;;;;;;9.66;100.00;96806.63;5022027;28;20706;-81
2024/02/22 05:17:32;;;;;;;0.63;0.63;;;;;;;9.64;100.00;96806.75;5023066;28;20292;-81
2024/02/22 05:19:59;;;;;;;1.43;1.00;;;;;;;9.65;100.00;96804.94;5022127;28;20213;-81
2024/02/22 05:22:25;;;;;;;0.97;0.83;;;;;;;9.61;100.00;96795.63;5022325;28;20242;-81
2024/02/22 05:24:52;;;;;;;0.83;0.80;;;;;;;9.62;100.00;96782.28;5022095;28;20228;-81
2024/02/22 05:27:18;;;;;;;2.50;0.80;;;;;;;9.54;100.00;96781.31;5022479;28;20558;-81
2024/02/22 05:29:46;;;;;;;0.90;0.70;;;;;;;9.55;100.00;96785.59;5022744;28;20223;-81
2024/02/22 05:32:12;;;;;;;1.13;0.87;;;;;;;9.53;100.00;96769.06;5022541;28;20307;-81
2024/02/22 05:34:40;;;;;;;0.83;0.83;;;;;;;9.48;100.00;96771.28;5022340;28;20215;-81
2024/02/22 05:37:09;;;;;;;0.90;0.80;;;;;;;9.47;100.00;96766.94;5022753;28;20217;-81
2024/02/22 05:39:35;;;;;;;0.90;0.80;;;;;;;9.51;100.00;96760.47;5021523;28;20220;-81
2024/02/22 05:42:02;;;;;;;0.53;0.53;;;;;;;9.49;100.00;96759.75;5018214;28;20236;-81
2024/02/22 05:44:31;;;;;;;0.70;0.70;;;;;;;9.49;100.00;96757.13;5017261;28;20232;-81
2024/02/22 05:46:58;;;;;;;0.77;0.77;;;;;;;9.48;100.00;96750.19;5017675;28;20284;-81
2024/02/22 05:49:24;;;;;;;2.53;0.77;;;;;;;9.43;100.00;96747.09;4998904;28;20543;-81
2024/02/22 05:51:53;;;;;;;0.73;0.70;;;;;;;9.43;100.00;96747.09;5016241;28;20228;-81
2024/02/22 05:54:22;;;;;;;1.67;0.80;;;;;;;9.39;100.00;96741.25;5016091;28;20208;-81
2024/02/22 05:56:49;;;;;;;0.73;0.50;;;;;;;9.32;100.00;96744.56;5016981;28;20216;-81
2024/02/22 05:59:16;;;;;;;1.60;0.93;;;;;;;9.27;100.00;96738.84;4997914;28;20288;-81
2024/02/22 06:01:43;;;;;;;0.80;0.80;;;;;;;9.22;100.00;96733.97;5016545;28;20291;-81
2024/02/22 06:04:09;;;;;;;1.40;0.97;;;;;;;9.24;100.00;96733.84;5016003;28;20228;-81
2024/02/22 06:06:36;;;;;;;3.67;0.83;;;;;;;9.27;100.00;96723.88;5016015;28;20583;-81
2024/02/22 06:09:06;;;;;;;0.80;0.80;;;;;;;9.26;100.00;96729.25;5016336;28;20211;-81
2024/02/22 06:11:34;;;;;;;1.33;1.03;;;;;;;9.20;100.00;96714.81;5017504;28;20306;-81
2024/02/22 06:14:00;;;;;;;1.40;0.90;;;;;;;9.16;100.00;96712.56;5016395;28;20209;-81
2024/02/22 06:16:28;;;;;;;1.27;1.10;;;;;;;9.20;100.00;96713.97;5017421;28;20210;-81
2024/02/22 06:18:55;;;;;;;1.73;0.90;;;;;;;9.15;100.00;96709.09;5015951;28;20219;-81
2024/02/22 06:21:21;;;;;;;0.93;0.90;;;;;;;9.16;100.00;96710.78;5015696;28;20696;-81
2024/02/22 06:23:48;;;;;;;1.17;0.90;;;;;;;9.15;100.00;96701.19;5015104;28;20647;-81
2024/02/22 06:26:16;;;;;;;0.60;0.60;;;;;;;9.15;100.00;96705.63;5015572;28;20217;-81
2024/02/22 06:28:42;;;;;;;2.00;0.83;;;;;;;9.18;100.00;96700.09;5014414;28;20601;-81
2024/02/22 06:31:09;;;;;;;1.00;0.90;;;;;;;9.20;100.00;96706.06;5015305;28;20212;-81
2024/02/22 06:33:37;;;;;;;1.53;1.00;;;;;;;9.20;100.00;96709.56;5015270;28;20201;-81
2024/02/22 06:36:04;;;;;;;1.80;1.03;;;;;;;9.24;100.00;96702.22;5015444;28;20719;-81
2024/02/22 06:38:31;;;;;;;1.20;0.90;;;;;;;9.29;100.00;96700.84;4997002;28;20579;-81
2024/02/22 06:41:00;;;;;;;1.53;1.07;;;;;;;9.33;100.00;96699.59;5014656;28;20219;-81
2024/02/22 06:43:27;;;;;;;1.27;0.80;;;;;;;9.32;100.00;96697.09;5014376;28;20220;-81
2024/02/22 06:45:54;;;;;;;2.43;0.90;;;;;;;9.35;100.00;96696.81;5014650;28;20217;-81
2024/02/22 06:48:21;;;;;;;1.03;0.90;;;;;;;9.28;100.00;96693.91;5014469;28;20223;-81
2024/02/22 06:50:47;;;;;;;0.80;0.80;;;;;;;9.24;100.00;96689.84;5015360;28;20243;-81
2024/02/22 06:53:14;;;;;;;1.57;0.80;;;;;;;9.30;100.00;96688.50;5018183;28;20237;-81
2024/02/22 06:55:41;;;;;;;1.30;0.80;;;;;;;9.28;100.00;96690.41;5020799;28;20209;-81
2024/02/22 06:58:07;;;;;;;1.93;0.80;;;;;;;9.32;100.00;96676.00;5019341;28;20219;-80
2024/02/22 07:00:35;;;;;;;1.20;0.93;;;;;;;9.35;100.00;96681.00;5020373;28;20716;-79
2024/02/22 07:03:02;;;;;;;2.00;0.93;;;;;;;9.33;100.00;96683.78;5018385;28;20229;-78
2024/02/22 07:05:29;;;;;;;1.00;0.80;;;;;;;9.38;100.00;96671.06;5016063;28;20282;-82
2024/02/22 07:07:55;;;;;;;1.30;0.90;;;;;;;9.35;100.00;96681.00;5017591;28;20584;-80
2024/02/22 07:10:22;;;;;;;0.93;0.70;;;;;;;9.33;100.00;96672.41;5018944;28;20212;-80
2024/02/22 07:12:48;;;;;;;1.43;0.60;;;;;;;9.33;100.00;96672.41;5018783;28;20596;-80
2024/02/22 07:15:16;;;;;;;1.90;0.90;;;;;;;9.43;100.00;96668.00;5023306;28;20288;-80
2024/02/22 07:17:44;;;;;;;0.73;0.67;;;;;;;9.42;100.00;96666.34;5023264;28;20710;-80
2024/02/22 07:20:13;;;;;;;1.77;0.83;;;;;;;9.42;100.00;96655.78;5024521;28;20581;-80
2024/02/22 07:22:42;;;;;;;1.10;1.00;;;;;;;9.42;100.00;96656.59;5024292;28;20235;-80
2024/02/22 07:25:11;;;;;;;1.13;1.00;;;;;;;9.39;100.00;96663.97;5024898;28;20236;-80
2024/02/22 07:27:38;;;;;;;3.03;1.10;;;;;;;9.46;100.00;96662.44;5024812;28;20208;-80
2024/02/22 07:30:06;;;;;;;1.57;1.20;;;;;;;9.45;100.00;96663.41;5025272;28;20245;-79
2024/02/22 07:32:33;;;;;;;1.33;1.10;;;;;;;9.46;100.00;96667.72;5026042;28;20243;-81
2024/02/22 07:35:01;;;;;;;2.83;1.50;;;;;;;9.43;100.00;96660.09;5026420;28;20205;-79
2024/02/22 07:37:28;;;;;;;2.40;1.67;;;;;;;9.43;100.00;96662.72;5024219;28;20664;-80
2024/02/22 07:39:54;;;;;;;2.13;1.40;;;;;;;9.46;100.00;96657.16;5024292;28;20227;-79
2024/02/22 07:42:22;;;;;;;2.43;1.43;;;;;;;9.45;100.00;96650.25;5021894;28;20279;-80
2024/02/22 07:44:49;;;;;;;1.90;1.70;;;;;;;9.45;100.00;96655.50;5016049;28;20546;-80
2024/02/22 07:47:15;;;;;;;2.27;1.80;;;;;;;9.44;100.00;96656.47;5015397;28;20854;-80
2024/02/22 07:49:42;;;;;;;1.97;1.77;;;;;;;9.48;100.00;96649.97;5016087;28;20213;-81
2024/02/22 07:52:10;;;;;;;2.43;1.57;;;;;;;9.47;100.00;96648.28;5015372;28;20734;-80
2024/02/22 07:54:38;;;;;;;2.70;1.70;;;;;;;9.48;100.00;96644.72;5015769;28;20209;-80
2024/02/22 07:57:06;;;;;;;2.80;1.77;;;;;;;9.51;100.00;96639.16;5014700;28;20217;-79
2024/02/22 07:59:32;;;;;;;3.07;1.67;;;;;;;9.48;100.00;96642.06;5015186;28;20219;-80
2024/02/22 08:01:59;;;;;;;3.37;1.70;;;;;;;9.48;100.00;96639.44;5015999;28;20250;-80
2024/02/22 08:04:26;;;;;;;2.23;1.80;;;;;;;9.49;100.00;96635.81;5015334;28;20233;-81
2024/02/22 08:06:52;;;;;;;2.43;1.70;;;;;;;9.48;100.00;96636.78;5016731;28;20383;-80
2024/02/22 08:09:23;;;;;;;1.87;1.47;;;;;;;9.45;100.00;96629.97;5017846;28;20223;-81
2024/02/22 08:11:50;;;;;;;2.00;1.40;;;;;;;9.45;100.00;96629.13;5023419;28;20239;-81
2024/02/22 08:14:16;;;;;;;3.10;1.53;;;;;;;9.48;100.00;96629.69;5023056;28;20532;-81
2024/02/22 08:16:43;;;;;;;2.30;1.50;;;;;;;9.45;100.00;96629.97;5021908;28;20701;-81
2024/02/22 08:19:09;;;;;;;2.70;1.20;;;;;;;9.49;100.00;96630.53;5021361;28;20213;-80
2024/02/22 08:21:36;;;;;;;5.53;1.53;;;;;;;9.46;100.00;96622.88;5022598;28;20741;-80
2024/02/22 08:24:03;;;;;;;2.67;1.17;;;;;;;9.48;100.00;96618.34;5018755;28;20213;-81
2024/02/22 08:26:31;;;;;;;1.93;0.87;;;;;;;9.54;100.00;96609.88;5017461;28;20209;-82
2024/02/22 08:28:57;;;;;;;1.93;1.17;;;;;;;9.56;100.00;96610.56;5018245;28;20215;-81
2024/02/22 08:31:24;;;;;;;1.40;0.80;;;;;;;9.62;100.00;96602.13;5019275;28;20237;-81
2024/02/22 08:33:51;;;;;;;1.00;0.80;;;;;;;9.62;100.00;96599.47;5019694;28;20726;-82
2024/02/22 08:36:17;;;;;;;1.07;0.60;;;;;;;9.61;100.00;96597.81;5015630;28;20209;-81
2024/02/22 08:38:44;;;;;;;1.00;0.80;;;;;;;9.61;100.00;96589.91;5014103;28;20591;-81
2024/02/22 08:41:10;;;;;;;1.00;0.60;;;;;;;9.62;100.00;96588.94;5014336;28;20227;-81
2024/02/22 08:43:39;;;;;;;0.60;0.60;;;;;;;9.55;100.00;96598.34;5013580;28;20223;-77
2024/02/22 08:46:05;;;;;;;0.50;0.50;;;;;;;9.57;100.00;96596.41;5012847;28;20243;-80
2024/02/22 08:48:32;;;;;;;0.60;0.60;;;;;;;9.58;100.00;96598.91;5014503;28;20209;-80
2024/02/22 08:50:58;;;;;;;0.63;0.60;;;;;;;9.62;100.00;96605.56;5015586;28;20212;-80
2024/02/22 08:53:25;;;;;;;0.70;0.50;;;;;;;9.64;100.00;96602.78;5015860;28;20212;-80
2024/02/22 08:55:51;;;;;;;0.53;0.53;;;;;;;9.67;100.00;96589.34;5015471;28;20212;-80
2024/02/22 08:58:18;;;;;;;0.97;0.50;;;;;;;9.70;100.00;96581.16;5016118;28;20210;-80
2024/02/22 09:00:47;;;;;;;0.70;0.40;;;;;;;9.79;100.00;96582.97;5015836;28;20224;-80
2024/02/22 09:03:14;;;;;;;0.60;0.60;;;;;;;9.81;100.00;96578.38;5014763;28;20239;-80
2024/02/22 09:05:43;;;;;;;0.60;0.57;;;;;;;9.84;100.00;96578.94;5014520;28;20237;-80
2024/02/22 09:08:10;;;;;;;0.60;0.50;;;;;;;9.85;100.00;96564.75;5014600;28;20221;-80
2024/02/22 09:10:36;;;;;;;1.53;0.77;;;;;;;9.90;100.00;96567.81;5015601;28;20211;-80
2024/02/22 09:13:03;;;;;;;0.63;0.47;;;;;;;9.99;100.00;96550.31;5016177;28;20241;-80
2024/02/22 09:15:29;;;;;;;2.50;0.57;;;;;;;10.01;100.00;96551.00;5016881;28;20215;-80
2024/02/22 09:17:57;;;;;;;0.50;0.50;;;;;;;10.03;100.00;96551.72;5016463;28;20230;-80
2024/02/22 09:20:24;;;;;;;0.57;0.50;;;;;;;10.06;100.00;96544.38;5017554;28;20307;-80
2024/02/22 09:22:50;;;;;;;0.50;0.50;;;;;;;10.06;100.00;96540.88;5017099;28;20553;-80
2024/02/22 09:25:17;;;;;;;0.60;0.60;;;;;;;10.08;100.00;96531.00;5015981;28;20248;-80
2024/02/22 09:27:44;;;;;;;1.17;0.57;;;;;;;10.07;100.00;96521.44;5016457;28;20616;-80
2024/02/22 09:30:11;;;;;;;0.50;0.50;;;;;;;10.10;100.00;96516.69;5016698;28;20213;-81
2024/02/22 09:32:37;;;;;;;0.50;0.50;;;;;;;10.11;100.00;96518.41;5017108;28;20713;-80
2024/02/22 09:35:06;;;;;;;0.50;0.50;;;;;;;10.19;100.00;96523.78;5016903;28;20207;-81
2024/02/22 09:37:33;;;;;;;0.47;0.47;;;;;;;10.26;100.00;96506.41;5016704;28;20207;-80
2024/02/22 09:39:59;;;;;;;0.80;0.50;;;;;;;10.34;100.00;96508.31;5015956;28;20221;-80
2024/02/22 09:42:26;;;;;;;0.40;0.40;;;;;;;10.30;100.00;96510.41;5016628;28;20231;-80
2024/02/22 09:44:54;;;;;;;0.50;0.50;;;;;;;10.33;100.00;96506.66;5016828;28;20309;-80
2024/02/22 09:47:21;;;;;;;0.50;0.50;;;;;;;10.38;100.00;96515.81;5016686;28;20256;-80
2024/02/22 09:49:47;;;;;;;0.40;0.40;;;;;;;10.41;100.00;96519.97;5015007;28;20297;-80
2024/02/22 09:52:15;;;;;;;0.40;0.40;;;;;;;10.40;100.00;96513.84;5015668;28;20236;-80
2024/02/22 09:54:44;;;;;;;0.40;0.40;;;;;;;10.41;100.00;96509.41;5020020;28;20209;-81
2024/02/22 09:57:11;;;;;;;0.30;0.30;;;;;;;10.39;100.00;96498.16;5003802;28;20629;-80
2024/02/22 09:59:37;;;;;;;0.30;0.30;;;;;;;10.41;100.00;96489.09;5015819;28;20217;-79
2024/02/22 10:02:05;;;;;;;0.40;0.40;;;;;;;10.47;100.00;96482.41;5013307;28;20245;-80
2024/02/22 10:04:33;;;;;;;0.30;0.30;;;;;;;10.44;100.00;96482.69;5014376;28;20214;-80
2024/02/22 10:07:03;;;;;;;0.60;0.30;;;;;;;10.50;100.00;96482.97;5021362;28;20208;-80
2024/02/22 10:09:41;;;;;;;0.80;0.40;;;;;;;10.51;100.00;96486.44;5020423;28;20209;-80
2024/02/22 10:12:09;;;;;;;0.40;0.40;;;;;;;10.64;100.00;96476.38;5021618;28;20234;-80
2024/02/22 10:14:36;;;;;;;0.50;0.50;;;;;;;10.68;100.00;96480.38;5021787;28;20209;-80
2024/02/22 10:17:06;;;;;;;0.60;0.40;;;;;;;10.76;100.00;96483.94;5020865;28;20213;-80
2024/02/22 10:19:33;;;;;;;1.00;0.40;;;;;;;10.80;100.00;96468.63;5017639;28;20257;-76
2024/02/22 10:21:59;;;;;;;0.33;0.30;;;;;;;10.93;100.00;96467.31;5018411;28;20228;-81
2024/02/22 10:24:27;;;;;;;0.30;0.30;;;;;;;10.95;100.00;96467.97;5021138;28;20682;-81
2024/02/22 10:27:03;;;;;;;0.30;0.30;;;;;;;10.94;100.00;96452.28;5021902;28;20259;-82
2024/02/22 10:29:29;;;;;;;0.33;0.33;;;;;;;10.92;100.00;96459.50;5024318;28;20593;-81
2024/02/22 10:31:56;;;;;;;0.40;0.40;;;;;;;10.99;100.00;96458.78;5025018;28;20243;-82
2024/02/22 10:34:25;;;;;;;0.33;0.33;;;;;;;10.92;100.00;96451.59;5025156;28;20209;-82
2024/02/22 10:36:54;;;;;;;0.60;0.60;;;;;;;11.00;100.00;96446.41;5023866;28;20713;-80
2024/02/22 10:39:23;;;;;;;0.30;0.30;;;;;;;11.08;100.00;96447.28;5019877;28;20234;-81
2024/02/22 10:41:53;;;;;;;0.30;0.30;;;;;;;11.09;100.00;96450.78;5019372;28;20242;-81
2024/02/22 10:44:21;;;;;;;0.30;0.30;;;;;;;11.04;100.00;96445.09;5018447;28;20213;-80
2024/02/22 10:46:49;;;;;;;0.30;0.30;;;;;;;11.00;100.00;96441.94;5018167;28;20229;-81
2024/02/22 10:49:16;;;;;;;0.37;0.37;;;;;;;10.93;100.00;96442.66;5019731;28;20213;-81
2024/02/22 10:51:43;;;;;;;0.30;0.30;;;;;;;10.86;100.00;96441.59;5019230;28;20248;-81
2024/02/22 10:54:11;;;;;;;0.37;0.37;;;;;;;10.82;100.00;96429.69;5018154;28;20210;-80
2024/02/22 10:56:41;;;;;;;0.40;0.30;;;;;;;10.78;100.00;96439.72;5018997;28;20311;-80
2024/02/22 10:59:10;;;;;;;0.40;0.40;;;;;;;10.79;100.00;96420.25;5019560;28;20215;-80
2024/02/22 11:01:39;;;;;;;0.70;0.30;;;;;;;10.75;100.00;96423.31;5017600;28;20243;-81
2024/02/22 11:04:06;;;;;;;0.73;0.60;;;;;;;10.63;100.00;96413.94;5018923;28;20304;-81
2024/02/22 11:06:39;;;;;;;0.70;0.43;;;;;;;10.57;100.00;96414.50;5019063;28;20229;-81
2024/02/22 11:09:16;;;;;;;0.43;0.40;;;;;;;10.51;100.00;96420.41;5018266;28;20293;-81
2024/02/22 11:11:44;;;;;;;0.70;0.40;;;;;;;10.43;100.00;96412.38;5019793;28;20678;-81
2024/02/22 11:14:13;;;;;;;0.37;0.37;;;;;;;10.41;100.00;96417.78;5019594;28;20211;-81
2024/02/22 11:16:41;;;;;;;0.73;0.43;;;;;;;10.44;100.00;96408.75;5019684;28;20283;-80
2024/02/22 11:19:17;;;;;;;0.30;0.20;;;;;;;10.47;100.00;96403.19;5018853;28;20883;-80
2024/02/22 11:21:44;;;;;;;0.30;0.30;;;;;;;10.49;100.00;96398.59;5019460;28;20279;-80
2024/02/22 11:24:12;;;;;;;0.40;0.40;;;;;;;10.49;100.00;96394.16;5024049;28;20222;-81
2024/02/22 11:26:39;;;;;;;0.33;0.33;;;;;;;10.49;100.00;96380.94;5023292;28;20710;-80
2024/02/22 11:29:07;;;;;;;0.70;0.50;;;;;;;10.49;100.00;96378.28;5022468;28;20212;-80
2024/02/22 11:31:35;;;;;;;0.40;0.30;;;;;;;10.50;100.00;96371.19;5022189;28;20239;-80